Time;durP1;ratioP1;P1;durP2;ratioP2;P2;SDS_P1;SDS_P2;PMS_P1;PMS_P2;Temp;Humidity;BMP_temperature;BMP_pressure;BME280_temperature;BME280_humidity;BME280_pressure;Samples;Min_cycle;Max_cycle;Signal;HPM_P1;HPM_P2
2022/11/26 00:00:51;;;;;;;15.35;6.78;;;;;;;6.34;98.61;100948.38;4960963;28;20058;-88
2022/11/26 00:03:18;;;;;;;16.13;6.13;;;;;;;6.31;99.07;100949.41;4959828;28;20055;-89
2022/11/26 00:05:48;;;;;;;14.60;6.70;;;;;;;6.30;98.43;100939.75;4980342;28;20827;-89
2022/11/26 00:08:26;;;;;;;18.80;7.32;;;;;;;6.24;98.39;100954.13;4985578;28;20401;-89
2022/11/26 00:10:53;;;;;;;14.63;6.60;;;;;;;6.25;98.52;100941.78;4946684;28;20096;-89
2022/11/26 00:13:23;;;;;;;15.02;6.75;;;;;;;6.23;98.38;100952.44;4960886;28;20046;-88
2022/11/26 00:15:49;;;;;;;15.82;7.20;;;;;;;6.24;98.35;100961.19;4974331;28;20057;-89
2022/11/26 00:18:17;;;;;;;14.00;6.40;;;;;;;6.21;98.35;100970.13;4985310;28;20074;-88
2022/11/26 00:20:45;;;;;;;21.85;7.40;;;;;;;6.21;98.35;100969.28;4987126;28;20054;-89
2022/11/26 00:23:19;;;;;;;13.70;5.53;;;;;;;6.17;98.10;100975.63;4965797;28;20105;-89
2022/11/26 00:26:01;;;;;;;22.40;6.55;;;;;;;6.19;98.35;100979.06;4965993;28;20034;-88
2022/11/26 00:28:30;;;;;;;9.63;5.05;;;;;;;6.22;98.67;100984.16;4967808;28;20047;-89
2022/11/26 00:31:00;;;;;;;22.27;8.52;;;;;;;6.24;98.96;100982.31;4955395;28;20062;-89
2022/11/26 00:33:28;;;;;;;17.63;8.77;;;;;;;6.26;99.80;100991.84;4980242;28;20498;-89
2022/11/26 00:36:12;;;;;;;18.92;8.73;;;;;;;6.28;99.32;100983.81;4972319;28;20168;-85
2022/11/26 00:38:39;;;;;;;23.92;9.50;;;;;;;6.32;99.46;100997.72;4978161;28;20490;-89
2022/11/26 00:41:12;;;;;;;17.30;8.38;;;;;;;6.26;98.78;100998.91;4967848;28;20046;-89
2022/11/26 00:43:39;;;;;;;22.42;9.02;;;;;;;6.32;99.18;100995.09;4991903;28;20054;-89
2022/11/26 00:46:11;;;;;;;16.05;8.63;;;;;;;6.30;99.20;100997.78;4970443;28;20061;-89
2022/11/26 00:48:38;;;;;;;24.73;9.73;;;;;;;6.36;99.21;101009.81;4972128;28;20057;-88
2022/11/26 00:51:05;;;;;;;17.17;10.00;;;;;;;6.39;99.34;101009.66;4967114;28;20055;-89
2022/11/26 00:53:32;;;;;;;20.38;9.60;;;;;;;6.41;99.33;101010.41;4971380;28;20058;-89
2022/11/26 00:55:58;;;;;;;20.65;9.55;;;;;;;6.43;99.27;101019.13;4969930;28;20487;-87
2022/11/26 00:58:28;;;;;;;20.13;10.02;;;;;;;6.44;99.21;101011.13;4975494;28;20053;-89
2022/11/26 01:00:57;;;;;;;25.63;11.48;;;;;;;6.43;99.53;101025.22;4972250;28;20042;-89
2022/11/26 01:03:24;;;;;;;28.52;11.20;;;;;;;6.44;99.57;101021.69;4972339;28;20469;-88
2022/11/26 01:05:56;;;;;;;19.58;10.38;;;;;;;6.41;99.22;101019.22;4973315;28;20042;-88
2022/11/26 01:08:34;;;;;;;29.05;11.10;;;;;;;6.40;99.43;101024.56;4980900;28;20581;-89
2022/11/26 01:11:02;;;;;;;20.25;10.32;;;;;;;6.43;99.44;101024.38;4981670;28;20181;-88
2022/11/26 01:13:30;;;;;;;18.55;10.50;;;;;;;6.40;99.52;101030.69;4956620;28;20047;-89
2022/11/26 01:15:59;;;;;;;22.17;12.35;;;;;;;6.40;99.45;101032.47;4954911;28;20043;-88
2022/11/26 01:18:26;;;;;;;20.95;10.57;;;;;;;6.42;99.50;101026.19;4976984;28;20034;-89
2022/11/26 01:20:52;;;;;;;25.27;11.77;;;;;;;6.36;99.42;101031.78;4933869;28;20054;-89
2022/11/26 01:23:19;;;;;;;17.90;9.82;;;;;;;6.35;99.50;101037.97;4975017;28;20042;-89
2022/11/26 01:25:46;;;;;;;21.63;10.75;;;;;;;6.34;99.38;101044.19;4957705;28;20105;-89
2022/11/26 01:28:15;;;;;;;26.20;10.82;;;;;;;6.31;99.08;101041.72;4961239;28;20062;-87
2022/11/26 01:30:42;;;;;;;20.10;10.00;;;;;;;6.25;99.40;101047.28;4984180;28;21090;-88
2022/11/26 01:33:09;;;;;;;25.40;10.93;;;;;;;6.27;99.14;101046.28;4957942;28;20072;-88
2022/11/26 01:35:36;;;;;;;17.45;9.85;;;;;;;6.24;99.21;101051.72;4986073;28;20049;-89
2022/11/26 01:38:03;;;;;;;27.45;11.38;;;;;;;6.23;99.43;101057.94;4969367;28;20046;-88
2022/11/26 01:40:38;;;;;;;26.52;10.68;;;;;;;6.20;99.10;101059.88;4963803;28;20073;-89
2022/11/26 01:43:19;;;;;;;20.98;10.10;;;;;;;6.16;98.61;101067.09;4945158;28;20477;-89
2022/11/26 01:45:46;;;;;;;19.33;9.13;;;;;;;6.23;98.85;101067.63;4958351;28;20519;-89
2022/11/26 01:48:26;;;;;;;21.42;9.10;;;;;;;6.20;98.34;101071.25;4968357;28;20053;-88
2022/11/26 01:50:57;;;;;;;24.00;9.48;;;;;;;6.14;99.10;101076.00;4953870;28;20409;-89
2022/11/26 01:53:35;;;;;;;24.02;9.48;;;;;;;6.07;99.26;101072.81;4969487;28;20108;-89
2022/11/26 01:56:06;;;;;;;29.80;12.15;;;;;;;6.18;99.17;101081.06;4952767;28;20046;-88
2022/11/26 01:58:39;;;;;;;44.38;12.25;;;;;;;6.09;99.86;101073.59;4953488;28;20038;-89
2022/11/26 02:01:06;;;;;;;29.23;11.32;;;;;;;6.14;100.00;101082.13;4934141;28;20098;-89
2022/11/26 02:03:41;;;;;;;33.63;11.20;;;;;;;6.11;99.90;101070.88;4968719;28;20046;-89
2022/11/26 02:06:13;;;;;;;30.52;11.98;;;;;;;6.14;99.77;101076.84;4927757;28;20046;-89
2022/11/26 02:08:40;;;;;;;25.08;12.02;;;;;;;6.18;100.00;101074.91;4949460;28;20042;-88
2022/11/26 02:11:15;;;;;;;36.85;12.18;;;;;;;6.12;100.00;101080.50;4985122;28;20085;-89
2022/11/26 02:13:42;;;;;;;43.75;12.85;;;;;;;6.17;100.00;101078.50;4959722;28;20118;-88
2022/11/26 02:16:20;;;;;;;59.00;11.90;;;;;;;6.06;100.00;101094.84;4965905;28;22744;-88
2022/11/26 02:19:06;;;;;;;61.72;12.73;;;;;;;6.06;99.75;101089.56;4974248;28;20042;-89
2022/11/26 02:21:33;;;;;;;66.15;12.88;;;;;;;6.13;99.77;101100.66;4955479;28;20043;-89
2022/11/26 02:24:06;;;;;;;90.75;15.18;;;;;;;6.10;99.22;101096.38;4959728;28;20058;-88
2022/11/26 02:26:57;;;;;;;51.30;12.95;;;;;;;6.04;99.43;101100.19;4987681;28;20486;-88
2022/11/26 02:29:46;;;;;;;113.72;17.25;;;;;;;6.01;99.38;101115.31;4961399;28;20042;-89
2022/11/26 02:32:16;;;;;;;43.65;13.23;;;;;;;6.08;99.50;101114.94;4969714;28;20057;-89
2022/11/26 02:34:50;;;;;;;21.63;12.82;;;;;;;6.04;99.72;101112.53;4992013;28;20489;-88
2022/11/26 02:37:36;;;;;;;22.65;11.52;;;;;;;6.03;99.83;101126.63;4990779;28;20524;-89
2022/11/26 02:40:06;;;;;;;18.15;10.07;;;;;;;6.10;99.46;101122.75;4962438;28;20112;-89
2022/11/26 02:42:35;;;;;;;20.52;10.82;;;;;;;6.13;99.36;101127.03;4989426;28;20054;-88
2022/11/26 02:45:04;;;;;;;18.52;10.20;;;;;;;6.10;99.16;101130.66;4977515;28;20047;-89
2022/11/26 02:47:31;;;;;;;18.02;9.05;;;;;;;6.13;99.39;101133.19;4982431;28;20070;-89
2022/11/26 02:50:02;;;;;;;15.88;9.13;;;;;;;6.17;98.97;101136.50;4977839;28;20042;-89
2022/11/26 02:52:29;;;;;;;18.42;9.95;;;;;;;6.20;99.11;101133.72;4970277;28;20046;-89
2022/11/26 02:54:56;;;;;;;21.25;9.75;;;;;;;6.21;98.92;101136.28;4969175;28;20053;-89
2022/11/26 02:57:25;;;;;;;19.00;9.25;;;;;;;6.22;98.68;101145.03;5011400;28;20556;-89
2022/11/26 02:59:52;;;;;;;18.50;10.05;;;;;;;6.25;98.65;101147.53;4975718;28;20054;-88
2022/11/26 03:02:33;;;;;;;14.85;8.82;;;;;;;6.14;98.92;101142.78;4970532;28;20565;-88
2022/11/26 03:05:01;;;;;;;14.10;8.65;;;;;;;6.24;98.85;101149.31;4984752;28;20042;-89
2022/11/26 03:07:31;;;;;;;15.70;8.63;;;;;;;6.23;98.87;101147.63;4987185;28;20493;-88
2022/11/26 03:10:00;;;;;;;19.02;9.68;;;;;;;6.25;98.92;101143.09;4956154;28;20046;-89
2022/11/26 03:12:27;;;;;;;13.85;7.97;;;;;;;6.29;99.00;101149.94;4975356;28;20046;-86
2022/11/26 03:14:54;;;;;;;20.60;11.18;;;;;;;6.31;98.78;101147.25;4963851;28;20130;-89
2022/11/26 03:17:21;;;;;;;19.08;8.57;;;;;;;6.33;98.86;101163.81;4983917;28;20057;-88
2022/11/26 03:19:47;;;;;;;16.00;8.82;;;;;;;6.33;99.14;101152.41;4969962;28;20046;-87
2022/11/26 03:22:14;;;;;;;16.48;8.95;;;;;;;6.36;99.10;101155.78;4988088;28;20043;-89
2022/11/26 03:24:41;;;;;;;20.48;9.10;;;;;;;6.39;99.02;101160.91;4977363;28;20448;-89
2022/11/26 03:27:08;;;;;;;21.42;8.85;;;;;;;6.41;99.12;101158.16;4969568;28;20121;-87
2022/11/26 03:29:34;;;;;;;20.40;8.68;;;;;;;6.42;99.41;101155.47;4982140;28;20438;-88
2022/11/26 03:32:01;;;;;;;16.42;9.23;;;;;;;6.44;99.08;101164.16;4973303;28;20441;-89
2022/11/26 03:34:28;;;;;;;21.60;9.05;;;;;;;6.45;99.26;101160.59;4972513;28;20042;-89
2022/11/26 03:36:55;;;;;;;19.30;8.70;;;;;;;6.45;99.24;101162.38;4959902;28;20054;-89
2022/11/26 03:39:21;;;;;;;17.88;9.25;;;;;;;6.42;99.33;101163.38;4988862;28;20701;-89
2022/11/26 03:41:48;;;;;;;24.83;9.43;;;;;;;6.40;99.66;101165.22;4987855;28;20046;-89
2022/11/26 03:44:15;;;;;;;14.65;7.85;;;;;;;6.41;99.76;101169.59;4985963;28;20082;-88
2022/11/26 03:46:42;;;;;;;19.85;9.32;;;;;;;6.42;99.57;101163.38;4988477;28;20050;-88
2022/11/26 03:49:08;;;;;;;18.90;9.35;;;;;;;6.41;99.66;101161.69;4944272;28;20460;-89
2022/11/26 03:51:35;;;;;;;20.05;8.48;;;;;;;6.43;99.78;101169.50;5018342;28;20046;-88
2022/11/26 03:54:02;;;;;;;16.17;8.77;;;;;;;6.45;99.62;101170.28;4958466;28;20054;-88
2022/11/26 03:56:29;;;;;;;18.83;9.77;;;;;;;6.45;99.69;101171.13;4987392;28;20038;-89
2022/11/26 03:58:55;;;;;;;29.35;9.60;;;;;;;6.46;99.47;101171.97;4985540;28;20410;-89
2022/11/26 04:01:22;;;;;;;17.05;9.35;;;;;;;6.46;99.68;101166.72;4974566;28;20390;-86
2022/11/26 04:03:49;;;;;;;22.80;8.88;;;;;;;6.43;99.67;101161.59;4968069;28;20061;-87
2022/11/26 04:06:15;;;;;;;20.80;8.75;;;;;;;6.42;99.49;101166.00;4954455;28;20035;-88
2022/11/26 04:08:42;;;;;;;19.80;8.90;;;;;;;6.43;99.49;101166.88;5004590;28;20046;-84
2022/11/26 04:11:09;;;;;;;21.55;9.48;;;;;;;6.41;99.79;101164.31;5002325;28;20054;-88
2022/11/26 04:13:36;;;;;;;22.27;9.77;;;;;;;6.41;99.71;101169.59;4956841;28;20058;-88
2022/11/26 04:16:02;;;;;;;23.92;11.40;;;;;;;6.42;99.47;101170.44;4955305;28;20137;-89
2022/11/26 04:18:29;;;;;;;21.42;9.65;;;;;;;6.41;99.55;101169.59;4983949;28;20105;-89
2022/11/26 04:20:56;;;;;;;20.55;10.45;;;;;;;6.40;99.44;101172.31;4986818;28;20046;-87
2022/11/26 04:23:23;;;;;;;17.90;9.40;;;;;;;6.38;99.44;101174.16;4956093;28;20046;-88
2022/11/26 04:25:49;;;;;;;16.58;9.88;;;;;;;6.38;99.12;101174.16;4971211;28;20406;-88
2022/11/26 04:28:16;;;;;;;18.58;9.75;;;;;;;6.34;99.30;101170.81;4940657;28;20389;-88
2022/11/26 04:30:43;;;;;;;18.80;9.45;;;;;;;6.29;99.21;101172.84;4945430;28;20050;-88
2022/11/26 04:33:10;;;;;;;16.30;8.40;;;;;;;6.28;99.04;101174.63;4955770;28;20048;-88
2022/11/26 04:35:37;;;;;;;14.18;8.63;;;;;;;6.21;98.30;101173.22;4950600;28;20049;-88
2022/11/26 04:38:04;;;;;;;13.93;7.72;;;;;;;6.20;97.64;101175.91;4952383;28;20050;-87
2022/11/26 04:40:30;;;;;;;15.93;8.52;;;;;;;6.18;97.57;101177.75;4951492;28;20049;-88
2022/11/26 04:42:57;;;;;;;22.35;8.35;;;;;;;6.12;97.68;101175.44;4959811;28;20105;-87
2022/11/26 04:45:24;;;;;;;15.15;7.85;;;;;;;6.06;97.85;101177.44;4968333;28;20060;-88
2022/11/26 04:47:51;;;;;;;18.50;8.25;;;;;;;6.11;98.03;101178.97;4962403;28;20050;-88
2022/11/26 04:50:18;;;;;;;16.77;8.50;;;;;;;6.13;98.04;101178.00;4954580;28;20172;-88
2022/11/26 04:52:47;;;;;;;27.20;10.52;;;;;;;6.15;98.39;101184.03;4952497;28;20120;-88
2022/11/26 04:55:15;;;;;;;21.10;8.98;;;;;;;6.21;98.42;101188.19;4968361;28;20084;-88
2022/11/26 04:57:42;;;;;;;20.55;9.77;;;;;;;6.15;98.69;101186.69;4986822;28;20113;-88
2022/11/26 05:00:10;;;;;;;24.25;9.95;;;;;;;6.16;98.71;101193.69;4968195;28;20108;-88
2022/11/26 05:02:36;;;;;;;24.73;10.13;;;;;;;6.12;98.12;101197.38;4986145;28;20046;-88
2022/11/26 05:05:03;;;;;;;13.35;6.90;;;;;;;6.11;97.88;101200.09;4992478;28;20046;-88
2022/11/26 05:07:30;;;;;;;11.85;7.88;;;;;;;6.09;98.07;101201.03;4986406;28;20050;-89
2022/11/26 05:09:57;;;;;;;14.82;7.80;;;;;;;6.05;98.03;101203.88;4969794;28;21015;-88
2022/11/26 05:12:24;;;;;;;12.23;6.82;;;;;;;6.04;98.11;101197.75;4985638;28;20049;-88
2022/11/26 05:14:51;;;;;;;13.18;7.30;;;;;;;6.12;97.70;101204.44;4978211;28;20105;-89
2022/11/26 05:17:17;;;;;;;16.90;8.40;;;;;;;6.16;98.07;101212.16;4971152;28;20054;-88
2022/11/26 05:19:44;;;;;;;17.23;8.20;;;;;;;6.20;98.39;101213.69;4970481;28;20123;-88
2022/11/26 05:22:11;;;;;;;24.35;9.85;;;;;;;6.16;99.14;101213.94;4969250;28;20050;-87
2022/11/26 05:24:37;;;;;;;17.90;8.35;;;;;;;6.16;98.78;101217.41;4973162;28;20046;-88
2022/11/26 05:27:05;;;;;;;21.77;8.70;;;;;;;6.12;98.98;101221.13;4955157;28;20042;-88
2022/11/26 05:29:32;;;;;;;17.38;8.07;;;;;;;6.11;98.62;101219.41;4986876;28;20046;-89
2022/11/26 05:31:58;;;;;;;16.05;8.98;;;;;;;6.09;98.41;101222.13;4985003;28;20053;-89
2022/11/26 05:34:26;;;;;;;20.95;10.32;;;;;;;6.09;98.06;101216.00;5002913;28;20405;-88
2022/11/26 05:36:52;;;;;;;23.98;10.60;;;;;;;6.07;97.62;101226.59;4954404;28;20050;-89
2022/11/26 05:39:19;;;;;;;26.98;12.93;;;;;;;6.05;98.42;101230.25;4963288;28;20039;-89
2022/11/26 05:41:46;;;;;;;31.38;14.90;;;;;;;6.04;98.53;101228.53;4953988;28;20490;-87
2022/11/26 05:44:12;;;;;;;30.05;13.93;;;;;;;6.09;98.94;101237.94;4970863;28;20054;-88
2022/11/26 05:46:41;;;;;;;23.48;12.38;;;;;;;6.12;98.74;101236.09;4973691;28;20104;-89
2022/11/26 05:49:08;;;;;;;23.20;11.25;;;;;;;6.15;98.54;101238.56;4970731;28;20070;-88
2022/11/26 05:51:34;;;;;;;17.67;10.20;;;;;;;6.17;98.63;101242.84;4985267;28;20046;-88
2022/11/26 05:54:01;;;;;;;23.25;10.23;;;;;;;6.16;98.98;101240.31;4996111;28;20559;-89
2022/11/26 05:56:28;;;;;;;21.08;10.40;;;;;;;6.16;99.24;101242.94;4974647;28;20046;-88
2022/11/26 05:58:55;;;;;;;24.98;11.23;;;;;;;6.16;99.13;101241.16;4988134;28;20042;-88
2022/11/26 06:01:21;;;;;;;22.67;11.68;;;;;;;6.17;99.20;101248.13;4968838;28;20046;-89
2022/11/26 06:03:48;;;;;;;20.80;10.93;;;;;;;6.10;98.30;101249.34;4972004;28;20053;-88
2022/11/26 06:06:15;;;;;;;20.02;10.18;;;;;;;6.08;98.17;101252.06;4960773;28;20042;-89
2022/11/26 06:08:42;;;;;;;17.60;10.35;;;;;;;6.05;98.08;101251.34;4964668;28;20425;-89
2022/11/26 06:11:12;;;;;;;17.13;9.38;;;;;;;6.02;97.55;101256.75;4970654;28;20053;-85
2022/11/26 06:13:39;;;;;;;18.35;10.75;;;;;;;6.02;98.19;101262.03;4986319;28;20043;-89
2022/11/26 06:16:06;;;;;;;19.20;10.32;;;;;;;6.01;98.13;101262.97;4988618;28;20046;-89
2022/11/26 06:18:32;;;;;;;15.07;8.48;;;;;;;6.01;97.89;101269.09;4989564;28;20046;-89
2022/11/26 06:21:04;;;;;;;16.75;8.55;;;;;;;5.97;97.36;101272.78;4958417;28;20047;-89
2022/11/26 06:23:31;;;;;;;13.70;8.73;;;;;;;6.02;97.90;101283.13;4987889;28;20390;-88
2022/11/26 06:25:58;;;;;;;15.77;8.10;;;;;;;6.06;97.76;101293.47;4975415;28;20046;-88
2022/11/26 06:28:25;;;;;;;21.75;9.52;;;;;;;6.08;98.01;101291.63;4994081;28;20042;-88
2022/11/26 06:30:52;;;;;;;19.55;9.60;;;;;;;6.05;98.32;101285.63;4958499;28;20231;-87
2022/11/26 06:33:18;;;;;;;16.83;8.38;;;;;;;6.07;98.21;101283.78;4985721;28;20042;-89
2022/11/26 06:35:45;;;;;;;26.50;11.10;;;;;;;6.05;98.34;101288.25;4963717;28;20362;-88
2022/11/26 06:38:12;;;;;;;20.33;9.40;;;;;;;6.07;97.83;101292.53;4960032;28;20049;-88
2022/11/26 06:40:38;;;;;;;27.80;11.57;;;;;;;6.06;98.02;101301.38;4987797;28;20050;-89
2022/11/26 06:43:05;;;;;;;22.05;11.88;;;;;;;6.08;98.01;101296.91;5006830;28;20048;-89
2022/11/26 06:45:33;;;;;;;24.77;10.88;;;;;;;6.03;98.20;101303.28;4963434;28;20046;-88
2022/11/26 06:48:00;;;;;;;19.83;10.80;;;;;;;6.05;98.59;101309.34;4979323;28;20113;-88
2022/11/26 06:50:26;;;;;;;24.67;10.05;;;;;;;6.03;98.94;101309.44;4972067;28;20096;-88
2022/11/26 06:52:53;;;;;;;18.52;10.55;;;;;;;6.04;99.23;101318.19;4973273;28;20074;-89
2022/11/26 06:55:20;;;;;;;26.42;10.70;;;;;;;6.05;99.40;101323.38;4989190;28;20038;-89
2022/11/26 06:57:50;;;;;;;27.13;9.88;;;;;;;6.11;98.97;101326.66;4977433;28;20089;-88
2022/11/26 07:00:17;;;;;;;27.17;11.80;;;;;;;6.15;99.13;101331.72;4967464;28;20042;-88
2022/11/26 07:02:44;;;;;;;34.08;13.73;;;;;;;6.16;98.89;101336.09;4970952;28;20080;-89
2022/11/26 07:05:11;;;;;;;23.70;10.20;;;;;;;6.13;99.39;101344.16;4971430;28;20042;-89
2022/11/26 07:07:38;;;;;;;22.90;9.93;;;;;;;6.15;98.91;101349.34;4954430;28;20042;-89
2022/11/26 07:10:06;;;;;;;29.40;11.15;;;;;;;6.15;98.87;101359.91;4963767;28;20053;-89
2022/11/26 07:12:33;;;;;;;24.08;9.95;;;;;;;6.13;99.49;101352.06;4955368;28;20046;-88
2022/11/26 07:14:59;;;;;;;24.98;10.48;;;;;;;6.16;99.42;101364.25;4943534;28;20486;-89
2022/11/26 07:17:27;;;;;;;31.27;10.57;;;;;;;6.15;99.59;101368.66;4973505;28;20046;-88
2022/11/26 07:19:54;;;;;;;35.80;11.77;;;;;;;6.16;99.92;101369.53;4954721;28;20050;-89
2022/11/26 07:22:21;;;;;;;38.47;12.85;;;;;;;6.17;100.00;101372.09;4969268;28;20046;-88
2022/11/26 07:24:47;;;;;;;34.75;12.05;;;;;;;6.21;99.90;101375.47;4962958;28;20069;-89
2022/11/26 07:27:14;;;;;;;30.30;12.65;;;;;;;6.21;99.71;101372.81;4954784;28;20478;-89
2022/11/26 07:29:41;;;;;;;37.88;14.25;;;;;;;6.22;100.00;101380.66;4955475;28;20072;-89
2022/11/26 07:32:08;;;;;;;38.05;13.75;;;;;;;6.21;100.00;101384.22;4976357;28;20057;-89
2022/11/26 07:34:35;;;;;;;32.33;14.82;;;;;;;6.25;100.00;101382.28;4951925;28;20058;-88
2022/11/26 07:37:01;;;;;;;35.15;13.75;;;;;;;6.27;100.00;101393.63;4963306;28;20393;-89
2022/11/26 07:39:28;;;;;;;32.95;13.45;;;;;;;6.30;100.00;101388.22;4976404;28;20061;-90
2022/11/26 07:41:55;;;;;;;41.20;14.13;;;;;;;6.33;100.00;101390.69;4987292;28;20494;-83
2022/11/26 07:44:22;;;;;;;30.02;13.75;;;;;;;6.33;100.00;101384.56;4950056;28;20763;-83
2022/11/26 07:46:48;;;;;;;38.38;13.88;;;;;;;6.35;100.00;101386.22;4980995;28;20050;-83
2022/11/26 07:49:15;;;;;;;37.95;14.10;;;;;;;6.38;100.00;101390.50;4975693;28;20050;-83
2022/11/26 07:51:42;;;;;;;32.47;13.57;;;;;;;6.38;100.00;101391.34;4977149;28;20054;-84
2022/11/26 07:54:09;;;;;;;31.63;12.88;;;;;;;6.42;100.00;101397.34;4953536;28;20043;-83
2022/11/26 07:56:35;;;;;;;34.78;14.07;;;;;;;6.43;100.00;101394.63;4956979;28;20035;-83
2022/11/26 07:59:02;;;;;;;32.08;12.80;;;;;;;6.43;100.00;101397.28;4964767;28;20446;-83
2022/11/26 08:01:29;;;;;;;34.25;13.32;;;;;;;6.46;100.00;101393.63;4971892;28;20042;-83
2022/11/26 08:03:58;;;;;;;35.30;12.88;;;;;;;6.47;100.00;101400.63;4950560;28;20100;-83
2022/11/26 08:06:27;;;;;;;43.53;12.70;;;;;;;6.47;100.00;101409.41;4988747;28;20141;-83
2022/11/26 08:08:54;;;;;;;38.45;12.88;;;;;;;6.48;100.00;101410.25;4938122;28;20054;-83
2022/11/26 08:11:26;;;;;;;41.47;12.43;;;;;;;6.47;100.00;101411.19;4932928;28;20053;-84
2022/11/26 08:14:01;;;;;;;37.70;13.05;;;;;;;6.44;100.00;101412.19;4954690;28;20049;-83
2022/11/26 08:16:28;;;;;;;46.45;13.50;;;;;;;6.48;100.00;101408.47;4950043;28;20054;-83
2022/11/26 08:18:57;;;;;;;38.75;13.68;;;;;;;6.50;100.00;101411.03;4952538;28;20072;-83
2022/11/26 08:21:24;;;;;;;36.13;13.68;;;;;;;6.52;100.00;101409.19;4975747;28;20118;-84
2022/11/26 08:23:51;;;;;;;40.30;13.55;;;;;;;6.52;100.00;101417.13;4987130;28;20047;-83
2022/11/26 08:26:19;;;;;;;43.25;14.52;;;;;;;6.54;100.00;101417.91;4971099;28;20050;-84
2022/11/26 08:28:54;;;;;;;44.72;14.90;;;;;;;6.55;100.00;101421.41;4955740;28;20485;-87
2022/11/26 08:31:23;;;;;;;37.30;13.07;;;;;;;6.60;100.00;101419.41;4960576;28;20498;-87
2022/11/26 08:33:50;;;;;;;39.20;13.85;;;;;;;6.64;100.00;101410.41;4965904;28;20058;-87
2022/11/26 08:36:17;;;;;;;36.00;12.52;;;;;;;6.69;100.00;101421.59;4955446;28;20042;-83
2022/11/26 08:38:45;;;;;;;35.88;13.45;;;;;;;6.71;100.00;101425.88;4994392;28;20184;-83
2022/11/26 08:41:13;;;;;;;40.60;13.50;;;;;;;6.76;100.00;101425.66;4945255;28;20049;-83
2022/11/26 08:43:40;;;;;;;36.88;13.70;;;;;;;6.79;100.00;101417.59;4949290;28;20046;-83
2022/11/26 08:46:26;;;;;;;42.22;15.00;;;;;;;6.80;99.98;101405.28;4945086;28;20121;-81
2022/11/26 08:48:56;;;;;;;34.08;13.38;;;;;;;6.79;99.60;101417.59;4984078;28;20038;-84
2022/11/26 08:51:23;;;;;;;35.75;13.63;;;;;;;6.80;99.89;101418.47;4965882;28;20046;-85
2022/11/26 08:53:50;;;;;;;34.25;14.23;;;;;;;6.81;99.91;101418.38;4935002;28;20062;-83
2022/11/26 08:56:17;;;;;;;38.92;15.60;;;;;;;6.84;100.00;101422.66;4985752;28;20561;-85
2022/11/26 08:58:44;;;;;;;32.90;13.60;;;;;;;6.84;99.96;101417.38;4970630;28;20062;-84
2022/11/26 09:01:23;;;;;;;34.40;14.27;;;;;;;6.86;99.65;101421.66;4963851;28;20042;-82
2022/11/26 09:03:51;;;;;;;38.10;15.77;;;;;;;6.87;99.74;101422.50;4953290;28;20528;-84
2022/11/26 09:06:19;;;;;;;40.05;14.52;;;;;;;6.88;99.90;101424.25;4958774;28;20100;-84
2022/11/26 09:11:34;;;;;;;37.47;17.73;;;;;;;6.87;100.00;101420.75;4934942;28;20134;-84
2022/11/26 09:14:02;;;;;;;39.08;17.42;;;;;;;6.93;100.00;101427.50;4918934;28;20434;-85
2022/11/26 09:16:29;;;;;;;37.75;17.45;;;;;;;6.93;100.00;101425.72;4933356;28;20116;-85
2022/11/26 09:18:59;;;;;;;44.90;19.23;;;;;;;6.95;99.98;101425.66;4981782;28;20050;-83
2022/11/26 09:21:26;;;;;;;43.47;16.52;;;;;;;6.95;100.00;101425.66;4980578;28;20383;-83
2022/11/26 09:23:53;;;;;;;38.28;16.30;;;;;;;6.98;100.00;101428.16;4955822;28;20183;-85
2022/11/26 09:26:20;;;;;;;36.78;14.95;;;;;;;6.98;100.00;101414.94;4987763;28;20077;-83
2022/11/26 09:28:47;;;;;;;30.98;15.15;;;;;;;7.01;100.00;101433.28;4959789;28;20070;-84
2022/11/26 09:31:15;;;;;;;35.20;13.52;;;;;;;7.04;100.00;101437.56;4961609;28;20449;-85
2022/11/26 09:33:44;;;;;;;36.70;16.08;;;;;;;7.04;100.00;101434.91;4972626;28;20046;-85
2022/11/26 09:36:13;;;;;;;37.30;17.55;;;;;;;7.05;100.00;101440.13;4984077;28;20050;-83
2022/11/26 09:38:41;;;;;;;43.53;16.38;;;;;;;7.05;100.00;101448.06;4989799;28;20049;-83
2022/11/26 09:41:10;;;;;;;37.88;16.50;;;;;;;7.04;99.79;101442.84;4943570;28;20043;-84
2022/11/26 09:44:16;;;;;;;42.35;15.25;;;;;;;7.00;100.00;101454.50;4960402;28;20051;-85
2022/11/26 09:46:48;;;;;;;38.42;16.02;;;;;;;7.04;100.00;101456.03;4966458;28;20367;-85
2022/11/26 09:49:40;;;;;;;32.30;14.57;;;;;;;7.06;99.93;101452.41;4968066;28;20101;-85
2022/11/26 09:52:08;;;;;;;38.00;15.27;;;;;;;7.09;100.00;101456.69;4984744;28;20065;-85
2022/11/26 09:54:37;;;;;;;33.25;13.63;;;;;;;7.09;100.00;101454.88;4982522;28;20109;-86
2022/11/26 09:57:16;;;;;;;36.47;14.63;;;;;;;7.06;100.00;101446.28;4962084;28;20049;-86
2022/11/26 09:59:44;;;;;;;27.50;12.55;;;;;;;7.10;99.92;101456.63;4945178;28;20045;-86
2022/11/26 10:02:12;;;;;;;35.60;11.90;;;;;;;7.10;100.00;101455.78;4962045;28;20489;-86
2022/11/26 10:04:39;;;;;;;32.42;11.82;;;;;;;7.11;100.00;101460.09;4930232;28;20383;-86
2022/11/26 10:07:40;;;;;;;27.38;11.43;;;;;;;7.06;100.00;101460.31;4977142;28;20045;-86
2022/11/26 10:10:31;;;;;;;17.63;9.40;;;;;;;7.07;99.90;101448.84;4931692;28;20047;-86
2022/11/26 10:13:05;;;;;;;18.25;9.38;;;;;;;7.15;99.93;101459.91;4897383;28;20116;-86
2022/11/26 10:15:55;;;;;;;30.73;10.60;;;;;;;7.17;100.00;101454.53;4932833;28;20054;-85
2022/11/26 10:18:59;;;;;;;26.27;9.35;;;;;;;7.15;99.92;101449.34;4951113;28;20494;-84
2022/11/26 10:21:39;;;;;;;23.65;10.52;;;;;;;7.18;99.69;101443.03;4899357;28;20046;-85
2022/11/26 10:24:30;;;;;;;22.10;10.05;;;;;;;7.23;99.80;101454.25;4894423;28;20101;-84
2022/11/26 10:26:59;;;;;;;26.63;9.82;;;;;;;7.23;99.38;101450.75;4952688;28;20383;-85
2022/11/26 10:29:40;;;;;;;24.75;9.07;;;;;;;7.25;99.62;101457.66;4985731;28;20066;-85
2022/11/26 10:32:14;;;;;;;24.30;10.45;;;;;;;7.22;99.50;101449.03;4968172;28;20046;-85
2022/11/26 10:34:50;;;;;;;;;;;;;;;7.11;99.89;101442.47;4978695;28;20857;-85
2022/11/26 10:37:19;;;;;;;20.08;10.07;;;;;;;7.14;99.94;101439.69;4972385;28;20428;-85
2022/11/26 10:39:47;;;;;;;24.48;10.73;;;;;;;7.20;99.95;101440.31;4979394;28;20074;-85
2022/11/26 10:42:21;;;;;;;25.08;10.85;;;;;;;7.07;99.61;101442.69;4967579;28;20051;-85
2022/11/26 10:44:49;;;;;;;26.13;10.65;;;;;;;7.12;99.47;101440.69;4955121;28;20042;-84
2022/11/26 10:47:30;;;;;;;24.85;11.23;;;;;;;7.08;99.30;101455.84;4973724;28;20070;-84
2022/11/26 10:50:02;;;;;;;25.45;11.07;;;;;;;7.11;99.45;101445.13;4937286;28;20046;-85
2022/11/26 10:52:51;;;;;;;24.70;11.68;;;;;;;7.13;99.57;101437.13;4941184;28;20046;-85
2022/11/26 10:55:29;;;;;;;22.88;11.20;;;;;;;7.16;99.68;101436.97;4978939;28;20643;-84
2022/11/26 10:58:05;;;;;;;21.60;9.38;;;;;;;7.17;99.57;101436.91;4970617;28;20109;-84
2022/11/26 11:00:35;;;;;;;21.48;10.93;;;;;;;7.21;99.74;101434.13;5001766;28;20098;-85
2022/11/26 11:03:03;;;;;;;28.77;12.38;;;;;;;7.24;99.61;101433.94;4959014;28;20051;-85
2022/11/26 11:05:31;;;;;;;24.15;11.40;;;;;;;7.26;99.65;101432.94;4967048;28;20054;-85
2022/11/26 11:07:58;;;;;;;21.85;11.18;;;;;;;7.29;99.27;101440.72;4976806;28;20038;-84
2022/11/26 11:10:25;;;;;;;26.63;12.85;;;;;;;7.31;99.58;101440.66;4968379;28;20108;-85
2022/11/26 11:13:11;;;;;;;25.88;11.73;;;;;;;7.25;99.22;101436.53;4954572;28;20042;-85
2022/11/26 11:15:39;;;;;;;25.65;12.15;;;;;;;7.33;99.43;101441.44;4956715;28;20472;-85
2022/11/26 11:18:20;;;;;;;27.30;11.20;;;;;;;7.29;99.30;101438.06;4970269;28;20054;-85
2022/11/26 11:20:53;;;;;;;31.27;13.80;;;;;;;7.33;99.46;101442.28;4979690;28;20047;-85
2022/11/26 11:23:21;;;;;;;24.45;11.25;;;;;;;7.36;99.44;101441.28;4957478;28;20572;-84
2022/11/26 11:26:18;;;;;;;26.90;13.10;;;;;;;7.33;99.04;101449.38;4996045;28;20050;-85
2022/11/26 11:28:48;;;;;;;28.70;13.73;;;;;;;7.38;99.02;101442.06;4921150;28;20050;-83
2022/11/26 11:31:20;;;;;;;33.85;13.98;;;;;;;7.39;99.22;101438.47;4955661;28;20121;-83
2022/11/26 11:33:47;;;;;;;32.78;14.05;;;;;;;7.39;98.91;101446.41;4955796;28;20046;-83